Time;durP1;ratioP1;P1;durP2;ratioP2;P2;SDS_P1;SDS_P2;PMS_P1;PMS_P2;Temp;Humidity;BMP_temperature;BMP_pressure;BME280_temperature;BME280_humidity;BME280_pressure;Samples;Min_cycle;Max_cycle;Signal;HPM_P1;HPM_P2
2023/09/21 00:00:20;;;;;;;5.10;1.33;;;;;;;17.02;100.00;99961.31;10469408;28;20525;-75
2023/09/21 00:05:24;;;;;;;3.33;1.23;;;;;;;16.99;100.00;99956.41;10466814;28;20048;-78
2023/09/21 00:10:31;;;;;;;4.72;2.08;;;;;;;17.02;100.00;99952.97;10462829;28;20040;-76
2023/09/21 00:15:33;;;;;;;5.82;1.45;;;;;;;17.00;100.00;99941.34;10465673;28;20041;-77
2023/09/21 00:20:42;;;;;;;4.72;1.50;;;;;;;16.96;100.00;99934.78;10479549;28;20039;-75
2023/09/21 00:25:43;;;;;;;3.47;1.75;;;;;;;16.86;100.00;99935.06;10465983;28;20059;-75
2023/09/21 00:30:43;;;;;;;3.85;1.50;;;;;;;16.86;100.00;99929.50;10479057;28;20036;-74
2023/09/21 00:35:44;;;;;;;3.15;1.52;;;;;;;16.76;100.00;99930.56;10474822;28;20041;-75
2023/09/21 00:40:45;;;;;;;5.25;1.58;;;;;;;16.58;100.00;99901.88;10479806;28;20044;-75
2023/09/21 00:45:51;;;;;;;3.42;1.58;;;;;;;16.61;100.00;99917.09;10473618;28;20044;-74
2023/09/21 00:50:56;;;;;;;3.07;1.77;;;;;;;16.58;100.00;99898.25;10470069;28;20037;-77
2023/09/21 00:56:05;;;;;;;4.25;1.40;;;;;;;16.66;100.00;99895.56;10482675;28;20041;-75
2023/09/21 01:01:05;;;;;;;2.97;1.40;;;;;;;16.81;100.00;99886.00;10483660;28;20049;-75
2023/09/21 01:06:07;;;;;;;3.10;1.80;;;;;;;16.86;100.00;99883.06;10483268;28;20397;-75
2023/09/21 01:11:14;;;;;;;4.10;1.85;;;;;;;16.73;100.00;99859.78;10467911;28;20037;-74
2023/09/21 01:16:17;;;;;;;3.80;1.40;;;;;;;16.77;100.00;99864.69;10481546;28;20032;-77
2023/09/21 01:21:18;;;;;;;4.72;1.23;;;;;;;16.84;100.00;99856.75;10482706;28;20045;-76
2023/09/21 01:26:19;;;;;;;6.93;1.50;;;;;;;16.80;100.00;99842.63;10483407;28;20032;-75
2023/09/21 01:31:20;;;;;;;1.63;1.20;;;;;;;16.83;100.00;99844.81;10482550;28;20040;-78
2023/09/21 01:36:23;;;;;;;4.85;1.38;;;;;;;16.81;100.00;99843.50;10483048;28;20037;-74
2023/09/21 01:41:23;;;;;;;3.45;1.95;;;;;;;16.91;100.00;99834.88;10475393;28;20048;-75
2023/09/21 01:46:24;;;;;;;2.88;1.30;;;;;;;16.90;100.00;99830.44;10470831;28;20052;-76
2023/09/21 01:51:25;;;;;;;3.03;1.55;;;;;;;16.88;100.00;99827.16;10479288;28;20500;-77
2023/09/21 01:56:27;;;;;;;2.78;1.23;;;;;;;16.84;100.00;99806.69;10485909;28;20032;-76
2023/09/21 02:01:28;;;;;;;4.85;1.45;;;;;;;16.84;100.00;99809.47;10482989;28;20400;-75
2023/09/21 02:06:28;;;;;;;3.17;1.88;;;;;;;16.79;100.00;99804.06;10478761;28;20041;-76
2023/09/21 02:11:29;;;;;;;3.65;1.48;;;;;;;16.74;100.00;99788.31;10478724;28;20048;-79
2023/09/21 02:16:30;;;;;;;3.97;1.50;;;;;;;16.80;100.00;99783.44;10483232;28;20036;-75
2023/09/21 02:21:34;;;;;;;3.17;1.48;;;;;;;16.72;100.00;99774.78;10478521;28;20080;-74
2023/09/21 02:26:37;;;;;;;3.60;1.40;;;;;;;16.65;100.00;99768.03;10485168;28;20037;-74
2023/09/21 02:31:37;;;;;;;3.17;1.23;;;;;;;16.56;100.00;99770.78;10479163;28;20079;-73
2023/09/21 02:36:38;;;;;;;2.78;1.10;;;;;;;16.52;100.00;99765.06;10470605;28;20037;-75
2023/09/21 02:41:39;;;;;;;2.28;1.05;;;;;;;16.50;100.00;99763.75;10477238;28;20048;-74
2023/09/21 02:46:39;;;;;;;4.38;2.05;;;;;;;16.46;100.00;99763.56;10481284;28;20040;-73
2023/09/21 02:51:40;;;;;;;3.35;1.80;;;;;;;16.38;100.00;99752.41;10479096;28;20037;-73
2023/09/21 02:56:43;;;;;;;4.10;1.30;;;;;;;16.41;100.00;99751.75;10480861;28;20036;-74
2023/09/21 03:01:45;;;;;;;3.17;0.93;;;;;;;16.34;100.00;99741.94;10480852;28;20051;-74
2023/09/21 03:06:46;;;;;;;3.25;1.90;;;;;;;16.28;100.00;99737.66;10477380;28;20045;-73
2023/09/21 03:11:46;;;;;;;1.75;1.30;;;;;;;16.32;100.00;99733.09;10478474;28;20040;-75
2023/09/21 03:16:49;;;;;;;4.20;1.17;;;;;;;16.32;100.00;99732.28;10473147;28;20048;-75
2023/09/21 03:21:50;;;;;;;2.05;1.17;;;;;;;16.31;100.00;99725.94;10479687;28;20126;-75
2023/09/21 03:26:50;;;;;;;4.43;1.60;;;;;;;16.27;100.00;99735.22;10476767;28;20037;-75
2023/09/21 03:31:50;;;;;;;2.95;1.20;;;;;;;16.24;100.00;99731.09;10483241;28;20041;-75
2023/09/21 03:36:51;;;;;;;2.70;1.23;;;;;;;16.18;100.00;99726.84;10468173;28;20046;-74
2023/09/21 03:41:53;;;;;;;2.38;1.20;;;;;;;16.09;100.00;99726.00;10475415;28;20036;-74
2023/09/21 03:46:54;;;;;;;5.43;1.20;;;;;;;16.04;100.00;99728.88;10481050;28;20053;-76
2023/09/21 03:51:54;;;;;;;2.58;1.48;;;;;;;15.91;100.00;99717.56;10475993;28;20045;-74
2023/09/21 03:56:55;;;;;;;3.97;1.65;;;;;;;15.89;100.00;99719.81;10478729;28;20036;-72
2023/09/21 04:01:55;;;;;;;1.77;1.33;;;;;;;15.92;100.00;99719.22;10477254;28;20095;-77
2023/09/21 04:06:56;;;;;;;2.70;1.30;;;;;;;15.69;100.00;99684.28;10476730;28;20045;-75
2023/09/21 04:11:57;;;;;;;2.53;1.30;;;;;;;15.92;100.00;99718.41;10475502;28;20071;-75
2023/09/21 04:16:58;;;;;;;3.75;1.48;;;;;;;15.91;100.00;99723.09;10476383;28;20063;-75
2023/09/21 04:21:59;;;;;;;2.90;1.40;;;;;;;15.92;100.00;99713.66;10476707;28;20037;-73
2023/09/21 04:26:59;;;;;;;3.00;1.42;;;;;;;16.05;100.00;99717.47;10479180;28;20036;-74
2023/09/21 04:32:00;;;;;;;5.03;1.60;;;;;;;16.11;100.00;99702.31;10475620;28;20040;-74
2023/09/21 04:37:00;;;;;;;2.55;1.58;;;;;;;16.11;100.00;99696.75;10473641;28;20033;-74
2023/09/21 04:42:01;;;;;;;3.38;1.15;;;;;;;16.08;100.00;99702.13;10471813;28;20044;-77
2023/09/21 04:47:03;;;;;;;1.83;1.15;;;;;;;16.09;100.00;99706.56;10471919;28;20037;-74
2023/09/21 04:52:04;;;;;;;3.70;1.67;;;;;;;16.05;100.00;99698.03;10480751;28;20040;-74
2023/09/21 04:57:04;;;;;;;2.63;1.13;;;;;;;16.03;100.00;99691.19;10473725;28;20386;-74
2023/09/21 05:02:05;;;;;;;2.42;1.25;;;;;;;16.01;100.00;99688.72;10479534;28;20044;-74
2023/09/21 05:07:06;;;;;;;2.65;1.30;;;;;;;16.02;100.00;99683.97;10478746;28;20040;-75
2023/09/21 05:12:06;;;;;;;3.88;1.27;;;;;;;15.97;100.00;99682.16;10459231;28;20041;-74
2023/09/21 05:17:07;;;;;;;2.60;1.25;;;;;;;15.92;100.00;99680.34;10474289;28;20037;-74
2023/09/21 05:22:09;;;;;;;3.17;1.50;;;;;;;15.89;100.00;99686.53;10474925;28;20036;-74
2023/09/21 05:27:11;;;;;;;2.53;1.48;;;;;;;15.97;100.00;99679.38;10475289;28;20063;-74
2023/09/21 05:32:12;;;;;;;3.20;1.40;;;;;;;16.09;100.00;99679.59;10476478;28;20071;-74
2023/09/21 05:37:12;;;;;;;2.80;1.23;;;;;;;16.25;100.00;99682.78;10477317;28;20123;-74
2023/09/21 05:42:15;;;;;;;5.75;1.73;;;;;;;16.34;100.00;99675.28;10469598;28;20490;-74
2023/09/21 05:47:16;;;;;;;2.28;1.23;;;;;;;16.48;100.00;99685.47;10472777;28;20127;-73
2023/09/21 05:52:18;;;;;;;3.00;1.23;;;;;;;16.40;100.00;99652.91;10485154;28;20048;-73
2023/09/21 05:57:19;;;;;;;3.95;1.50;;;;;;;16.79;100.00;99690.09;10478630;28;20044;-74
2023/09/21 06:02:19;;;;;;;5.43;1.58;;;;;;;16.99;100.00;99700.63;10466781;28;20044;-74
2023/09/21 06:07:20;;;;;;;3.97;2.15;;;;;;;17.29;100.00;99706.34;10475190;28;20103;-75
2023/09/21 06:12:26;;;;;;;2.78;1.20;;;;;;;17.61;100.00;99698.59;10484281;28;20063;-74
2023/09/21 06:17:26;;;;;;;4.07;1.25;;;;;;;17.72;100.00;99700.72;10475730;28;20044;-73
2023/09/21 06:22:27;;;;;;;4.18;1.40;;;;;;;17.78;100.00;99693.00;10482503;28;20051;-74
2023/09/21 06:27:28;;;;;;;4.60;1.55;;;;;;;17.82;100.00;99693.13;10478564;28;20128;-74
2023/09/21 06:32:29;;;;;;;5.15;1.67;;;;;;;17.89;100.00;99687.94;10482904;28;20389;-73
2023/09/21 06:37:30;;;;;;;4.90;1.40;;;;;;;17.94;100.00;99674.66;10476652;28;20048;-74
2023/09/21 06:42:31;;;;;;;3.63;1.40;;;;;;;18.07;100.00;99671.97;10476007;28;20435;-72
2023/09/21 06:47:32;;;;;;;4.07;1.50;;;;;;;18.28;100.00;99672.84;10478842;28;20037;-73
2023/09/21 06:52:33;;;;;;;3.55;1.45;;;;;;;18.40;100.00;99662.94;10478772;28;20059;-75
2023/09/21 06:57:34;;;;;;;3.72;1.50;;;;;;;18.48;100.00;99670.44;10479074;28;20048;-73
2023/09/21 07:02:38;;;;;;;2.88;1.05;;;;;;;18.50;100.00;99656.97;10459288;28;20045;-74
2023/09/21 07:07:41;;;;;;;3.03;0.95;;;;;;;18.50;100.00;99657.81;10459530;28;20041;-75
2023/09/21 07:12:41;;;;;;;2.67;1.10;;;;;;;18.49;100.00;99658.97;10447649;28;20043;-74
2023/09/21 07:17:42;;;;;;;3.90;1.85;;;;;;;18.49;100.00;99658.16;10449776;28;20044;-73
2023/09/21 07:22:43;;;;;;;3.47;1.23;;;;;;;18.53;100.00;99661.91;10444633;28;20044;-75
2023/09/21 07:27:44;;;;;;;4.18;1.67;;;;;;;18.53;100.00;99654.34;10460662;28;20040;-74
2023/09/21 07:32:44;;;;;;;3.95;1.42;;;;;;;18.67;100.00;99651.31;10440793;28;20042;-76
2023/09/21 07:37:46;;;;;;;3.75;1.42;;;;;;;18.76;100.00;99649.25;10443947;28;20064;-74
2023/09/21 07:42:48;;;;;;;2.15;1.25;;;;;;;18.74;100.00;99634.03;10470916;28;20108;-74
2023/09/21 07:47:49;;;;;;;3.58;1.42;;;;;;;18.95;100.00;99642.44;10472716;28;20036;-74
2023/09/21 07:52:50;;;;;;;3.90;1.27;;;;;;;19.07;100.00;99650.84;10479985;28;20098;-74
2023/09/21 07:57:50;;;;;;;2.38;1.35;;;;;;;19.18;100.00;99654.03;10475838;28;20037;-75
2023/09/21 08:02:53;;;;;;;2.08;1.30;;;;;;;19.32;100.00;99654.56;10474357;28;20044;-73
2023/09/21 08:07:53;;;;;;;2.92;1.40;;;;;;;19.59;100.00;99662.69;10475218;28;20033;-74
2023/09/21 08:12:54;;;;;;;5.72;2.45;;;;;;;19.83;100.00;99661.97;10473833;28;20500;-74
2023/09/21 08:17:54;;;;;;;2.30;1.40;;;;;;;20.00;100.00;99663.75;10474784;28;20049;-75
2023/09/21 08:22:55;;;;;;;2.95;1.10;;;;;;;20.08;100.00;99674.81;10478364;28;20047;-74
2023/09/21 08:27:56;;;;;;;3.88;1.70;;;;;;;20.18;100.00;99673.53;10475221;28;20445;-75
2023/09/21 08:32:57;;;;;;;4.55;1.65;;;;;;;19.99;100.00;99659.31;10480068;28;20037;-75
2023/09/21 08:37:59;;;;;;;7.10;3.10;;;;;;;19.95;100.00;99673.97;10473852;28;20097;-76
2023/09/21 08:42:59;;;;;;;4.53;1.60;;;;;;;19.79;100.00;99686.97;10464643;28;20041;-75
2023/09/21 08:48:01;;;;;;;2.53;1.40;;;;;;;19.64;100.00;99693.19;10460393;28;20037;-74
2023/09/21 08:53:02;;;;;;;2.05;1.50;;;;;;;19.80;100.00;99699.75;10470943;28;20093;-74
2023/09/21 08:58:04;;;;;;;3.72;1.25;;;;;;;19.86;100.00;99690.00;10479658;28;20053;-73
2023/09/21 09:03:04;;;;;;;6.38;1.52;;;;;;;19.91;100.00;99692.59;10471893;28;20045;-77
2023/09/21 09:08:06;;;;;;;2.42;1.30;;;;;;;19.99;100.00;99709.59;10459816;28;20047;-74
2023/09/21 09:13:07;;;;;;;6.57;2.50;;;;;;;19.93;100.00;99723.78;10468716;28;20043;-74
2023/09/21 09:18:08;;;;;;;4.68;1.30;;;;;;;19.78;100.00;99720.81;10482134;28;20671;-74
2023/09/21 09:23:10;;;;;;;2.40;1.40;;;;;;;19.67;100.00;99737.16;10484661;28;20044;-75
2023/09/21 09:28:10;;;;;;;5.25;2.10;;;;;;;19.49;100.00;99726.19;10483179;28;20039;-75
2023/09/21 09:33:15;;;;;;;3.22;1.60;;;;;;;19.30;100.00;99742.59;10481005;28;20044;-75
2023/09/21 09:38:15;;;;;;;3.20;1.55;;;;;;;19.06;100.00;99755.25;10482425;28;20048;-77
2023/09/21 09:43:16;;;;;;;4.25;1.75;;;;;;;18.71;100.00;99758.22;10465841;28;20059;-73
2023/09/21 09:48:18;;;;;;;3.65;1.92;;;;;;;18.62;100.00;99768.56;10465683;28;20033;-75
2023/09/21 09:53:19;;;;;;;3.00;1.77;;;;;;;18.48;100.00;99770.75;10439553;28;20041;-75
2023/09/21 09:58:20;;;;;;;4.13;2.08;;;;;;;18.21;100.00;99763.66;10467322;28;20028;-75
2023/09/21 10:03:22;;;;;;;6.18;2.58;;;;;;;18.13;100.00;99770.91;10460462;28;20041;-76
2023/09/21 10:08:25;;;;;;;6.53;2.60;;;;;;;18.13;100.00;99787.63;10466903;28;20432;-77
2023/09/21 10:13:26;;;;;;;5.93;2.58;;;;;;;18.07;100.00;99783.38;10477557;28;20041;-77
2023/09/21 10:18:36;;;;;;;4.50;3.15;;;;;;;17.89;100.00;99768.66;10469273;28;20124;-76
2023/09/21 10:23:36;;;;;;;7.95;3.08;;;;;;;17.94;100.00;99780.47;10469754;28;20040;-77
2023/09/21 10:28:39;;;;;;;5.47;2.90;;;;;;;17.81;100.00;99759.16;10485094;28;20052;-78
2023/09/21 10:33:51;;;;;;;5.25;1.95;;;;;;;17.78;100.00;99796.00;10475380;28;20037;-79
2023/09/21 10:39:13;;;;;;;5.57;2.40;;;;;;;17.55;100.00;99792.59;10462411;28;20065;-78
2023/09/21 10:44:52;;;;;;;5.25;2.42;;;;;;;17.43;100.00;99784.88;10470182;28;20045;-76
2023/09/21 10:49:52;;;;;;;3.25;2.00;;;;;;;17.41;100.00;99784.41;10477173;28;20048;-77
2023/09/21 10:54:53;;;;;;;7.75;2.80;;;;;;;17.42;100.00;99791.59;10462650;28;20043;-76
2023/09/21 10:59:55;;;;;;;5.45;3.08;;;;;;;17.42;100.00;99790.78;10477245;28;20036;-75
2023/09/21 11:04:57;;;;;;;8.40;3.08;;;;;;;17.35;100.00;99791.25;10479307;28;20032;-78
2023/09/21 11:09:58;;;;;;;8.70;4.45;;;;;;;17.36;100.00;99792.88;10482122;28;20078;-76
2023/09/21 11:14:59;;;;;;;4.68;3.65;;;;;;;17.43;100.00;99784.88;10463966;28;20091;-78
2023/09/21 11:20:02;;;;;;;7.05;3.47;;;;;;;17.28;100.00;99774.22;10434810;28;20032;-77
2023/09/21 11:25:03;;;;;;;6.30;3.70;;;;;;;17.17;100.00;99775.69;10431929;28;20175;-77
2023/09/21 11:30:05;;;;;;;3.33;2.28;;;;;;;16.91;100.00;99787.59;10442123;28;20442;-78
2023/09/21 11:35:07;;;;;;;5.03;1.50;;;;;;;16.65;100.00;99804.97;10451680;28;20053;-76
2023/09/21 11:40:12;;;;;;;2.75;1.20;;;;;;;16.54;100.00;99773.88;10448580;28;20038;-78
2023/09/21 11:45:24;;;;;;;1.87;1.30;;;;;;;16.52;100.00;99789.25;10464756;28;20053;-78
2023/09/21 11:50:30;;;;;;;4.07;1.10;;;;;;;16.49;100.00;99781.53;10479154;28;20041;-77
2023/09/21 11:55:30;;;;;;;2.17;0.80;;;;;;;16.49;100.00;99790.69;10476629;28;20044;-76
2023/09/21 12:05:51;;;;;;;1.70;0.95;;;;;;;16.80;100.00;99786.22;10481899;28;20122;-76
2023/09/21 12:10:53;;;;;;;2.25;1.75;;;;;;;17.26;100.00;99793.19;10477472;28;20120;-76
2023/09/21 12:15:56;;;;;;;1.90;1.15;;;;;;;17.49;100.00;99783.56;10476705;28;20047;-76
2023/09/21 12:20:58;;;;;;;3.88;0.85;;;;;;;17.68;100.00;99762.94;10477477;28;20064;-75
2023/09/21 12:25:58;;;;;;;3.17;1.13;;;;;;;18.03;100.00;99771.28;10476348;28;20043;-75
2023/09/21 12:30:58;;;;;;;1.77;1.00;;;;;;;18.39;100.00;99761.63;10478315;28;20044;-76
2023/09/21 12:36:00;;;;;;;2.50;1.00;;;;;;;18.66;100.00;99752.81;10474751;28;20052;-76
2023/09/21 12:41:00;;;;;;;2.80;1.00;;;;;;;18.54;100.00;99758.28;10467343;28;20048;-76
2023/09/21 12:46:02;;;;;;;2.78;1.17;;;;;;;18.32;100.00;99760.19;10469445;28;20064;-76
2023/09/21 12:51:03;;;;;;;1.50;1.02;;;;;;;17.86;100.00;99772.09;10488184;28;20450;-78
2023/09/21 12:56:05;;;;;;;2.78;1.13;;;;;;;17.15;100.00;99785.16;10458775;28;20045;-77
2023/09/21 13:01:05;;;;;;;2.95;1.17;;;;;;;16.93;100.00;99779.75;10456020;28;20044;-78
2023/09/21 13:06:06;;;;;;;1.83;1.00;;;;;;;16.94;100.00;99781.38;10455155;28;20693;-77
2023/09/21 13:11:06;;;;;;;2.70;1.05;;;;;;;17.06;100.00;99778.78;10463045;28;20041;-78
2023/09/21 13:16:08;;;;;;;1.85;1.10;;;;;;;17.01;100.00;99772.56;10481112;28;20048;-78
2023/09/21 13:21:10;;;;;;;1.90;0.85;;;;;;;16.89;100.00;99771.25;10478393;28;20613;-76
2023/09/21 13:26:12;;;;;;;1.63;0.88;;;;;;;16.77;100.00;99767.44;10472504;28;20508;-76
2023/09/21 13:31:14;;;;;;;2.03;1.13;;;;;;;16.64;100.00;99735.81;10482273;28;20044;-77
2023/09/21 13:36:15;;;;;;;1.30;0.80;;;;;;;16.79;100.00;99751.25;10483712;28;20041;-78
2023/09/21 13:41:16;;;;;;;1.60;1.08;;;;;;;17.04;100.00;99746.91;10471023;28;20044;-77
2023/09/21 13:46:17;;;;;;;1.67;0.60;;;;;;;17.29;100.00;99742.50;10476074;28;20504;-78
2023/09/21 13:51:18;;;;;;;1.27;0.82;;;;;;;17.29;100.00;99739.72;10483821;28;20062;-78
2023/09/21 13:56:19;;;;;;;1.20;0.50;;;;;;;17.37;100.00;99744.47;10479145;28;20041;-77
2023/09/21 14:01:20;;;;;;;1.80;0.70;;;;;;;17.46;100.00;99742.47;10483269;28;20037;-76
2023/09/21 14:06:24;;;;;;;1.05;0.35;;;;;;;17.23;100.00;99718.78;10479193;28;20029;-75
2023/09/21 14:11:25;;;;;;;1.48;0.90;;;;;;;17.13;100.00;99723.50;10468947;28;20049;-77
2023/09/21 14:16:25;;;;;;;1.23;0.68;;;;;;;17.12;100.00;99713.53;10467381;28;20041;-77
2023/09/21 14:21:26;;;;;;;2.70;0.47;;;;;;;17.24;100.00;99690.63;10469404;28;20056;-76
2023/09/21 14:26:26;;;;;;;2.88;0.60;;;;;;;17.49;100.00;99694.53;10483431;28;20032;-76
2023/09/21 14:31:27;;;;;;;0.73;0.40;;;;;;;17.56;100.00;99694.03;10477321;28;20041;-67
2023/09/21 14:36:27;;;;;;;1.25;0.60;;;;;;;17.42;100.00;99680.28;10483925;28;20106;-78
2023/09/21 14:41:27;;;;;;;4.60;0.63;;;;;;;17.24;100.00;99678.66;10485224;28;20074;-75
2023/09/21 14:46:28;;;;;;;1.23;0.50;;;;;;;17.12;100.00;99659.88;10480380;28;20045;-75
2023/09/21 14:51:28;;;;;;;3.65;0.80;;;;;;;17.01;100.00;99658.56;10481031;28;20041;-72
2023/09/21 14:56:29;;;;;;;2.95;0.60;;;;;;;16.80;100.00;99641.69;10475196;28;20050;-75
2023/09/21 15:01:31;;;;;;;2.40;0.73;;;;;;;16.82;100.00;99645.00;10478416;28;20045;-75
2023/09/21 15:06:33;;;;;;;1.55;0.88;;;;;;;16.66;100.00;99636.28;10479324;28;20024;-76
2023/09/21 15:11:33;;;;;;;1.35;0.65;;;;;;;16.54;100.00;99651.63;10474250;28;20061;-75
2023/09/21 15:16:34;;;;;;;4.45;0.70;;;;;;;16.44;100.00;99645.56;10449111;28;20393;-75
2023/09/21 15:21:35;;;;;;;1.00;0.70;;;;;;;16.34;100.00;99653.06;10448315;28;20072;-74
2023/09/21 15:26:35;;;;;;;1.77;0.98;;;;;;;16.30;100.00;99634.59;10450548;28;20033;-74
2023/09/21 15:31:36;;;;;;;1.83;0.93;;;;;;;16.22;100.00;99661.19;10450024;28;20041;-75
2023/09/21 15:36:40;;;;;;;1.80;0.70;;;;;;;16.00;100.00;99664.03;10457926;28;20045;-75
2023/09/21 15:41:41;;;;;;;5.38;1.40;;;;;;;15.84;100.00;99633.94;10466422;28;20051;-71
2023/09/21 15:46:41;;;;;;;3.63;1.52;;;;;;;15.60;100.00;99650.13;10435193;28;20041;-71
2023/09/21 15:51:43;;;;;;;3.00;0.85;;;;;;;15.45;100.00;99624.41;10435878;28;20029;-71
2023/09/21 15:56:44;;;;;;;3.53;1.15;;;;;;;15.27;100.00;99620.69;10430620;28;20508;-71
2023/09/21 16:01:44;;;;;;;1.98;1.27;;;;;;;15.31;100.00;99623.66;10457459;28;20041;-71
2023/09/21 16:06:46;;;;;;;2.92;1.42;;;;;;;15.38;100.00;99615.75;10476696;28;20043;-71
2023/09/21 16:11:47;;;;;;;5.30;2.10;;;;;;;15.19;100.00;99599.28;10474586;28;20041;-70
2023/09/21 16:16:47;;;;;;;4.18;2.20;;;;;;;15.23;100.00;99625.25;10474621;28;20044;-71
2023/09/21 16:21:47;;;;;;;2.30;1.55;;;;;;;15.17;100.00;99626.50;10474809;28;20094;-70
2023/09/21 16:26:49;;;;;;;6.63;2.25;;;;;;;15.15;100.00;99628.78;10476570;28;20048;-70
2023/09/21 16:31:49;;;;;;;3.35;2.22;;;;;;;15.14;100.00;99635.47;10477815;28;20455;-70
2023/09/21 16:36:50;;;;;;;5.47;2.20;;;;;;;15.12;100.00;99626.66;10474341;28;20040;-71
2023/09/21 16:41:50;;;;;;;7.97;3.45;;;;;;;15.03;100.00;99626.59;10467567;28;20112;-70
2023/09/21 16:46:51;;;;;;;5.28;2.13;;;;;;;15.04;100.00;99644.03;10434274;28;20033;-70
2023/09/21 16:51:52;;;;;;;6.10;2.97;;;;;;;14.89;100.00;99632.19;10463454;28;20034;-71
2023/09/21 16:56:52;;;;;;;3.80;2.80;;;;;;;14.95;100.00;99621.00;10458726;28;20041;-70
2023/09/21 17:01:53;;;;;;;7.30;2.33;;;;;;;14.99;100.00;99642.22;10475894;28;20480;-70
2023/09/21 17:06:53;;;;;;;9.70;3.25;;;;;;;14.87;100.00;99620.59;10472072;28;20114;-71
2023/09/21 17:11:54;;;;;;;4.35;2.95;;;;;;;14.95;100.00;99607.94;10479508;28;20044;-71
2023/09/21 17:16:55;;;;;;;6.78;3.10;;;;;;;14.95;100.00;99569.16;10453235;28;20334;-70
2023/09/21 17:21:56;;;;;;;6.82;4.25;;;;;;;14.84;100.00;99540.03;10457678;28;20048;-70
2023/09/21 17:26:57;;;;;;;11.05;6.38;;;;;;;14.82;100.00;99525.69;10460431;28;20104;-70
2023/09/21 17:31:57;;;;;;;10.48;6.22;;;;;;;14.82;100.00;99531.22;10446554;28;20044;-70
2023/09/21 17:36:58;;;;;;;12.23;5.95;;;;;;;14.85;100.00;99520.34;10468092;28;20034;-70
2023/09/21 17:41:59;;;;;;;10.32;5.75;;;;;;;14.87;100.00;99500.63;10478976;28;20124;-70
2023/09/21 17:47:01;;;;;;;12.23;5.68;;;;;;;14.85;100.00;99513.97;10473842;28;20049;-71
2023/09/21 17:52:03;;;;;;;16.63;6.38;;;;;;;14.77;100.00;99518.31;10477635;28;20033;-70
2023/09/21 17:57:04;;;;;;;13.18;6.13;;;;;;;14.77;100.00;99540.47;10470100;28;20179;-70
2023/09/21 18:02:04;;;;;;;11.07;5.63;;;;;;;14.75;100.00;99533.63;10472063;28;20036;-70
2023/09/21 18:07:05;;;;;;;14.02;6.78;;;;;;;14.65;100.00;99518.88;10481979;28;20040;-71
2023/09/21 18:12:06;;;;;;;14.93;6.70;;;;;;;14.70;100.00;99540.13;10480854;28;20040;-70
2023/09/21 18:17:08;;;;;;;12.13;6.10;;;;;;;14.58;100.00;99532.38;10471889;28;20044;-70
2023/09/21 18:22:09;;;;;;;13.60;6.32;;;;;;;14.67;100.00;99557.34;10471972;28;20061;-71
2023/09/21 18:27:09;;;;;;;14.30;7.22;;;;;;;14.69;100.00;99555.09;10473716;28;20042;-70
2023/09/21 18:32:10;;;;;;;14.05;7.18;;;;;;;14.73;100.00;99553.34;10471381;28;20106;-71
2023/09/21 18:37:10;;;;;;;16.58;7.85;;;;;;;14.75;100.00;99558.56;10475985;28;20057;-71
2023/09/21 18:42:11;;;;;;;11.45;6.45;;;;;;;14.75;100.00;99553.03;10457889;28;20040;-72
2023/09/21 18:47:13;;;;;;;15.95;8.88;;;;;;;14.77;100.00;99553.53;10460695;28;20104;-71
2023/09/21 18:52:13;;;;;;;15.15;8.90;;;;;;;14.78;100.00;99561.53;10481187;28;20082;-71
2023/09/21 18:57:14;;;;;;;21.75;10.85;;;;;;;14.79;100.00;99559.56;10478540;28;20556;-72
2023/09/21 19:02:15;;;;;;;15.57;9.48;;;;;;;14.79;100.00;99565.94;10481434;28;20075;-72
2023/09/21 19:07:15;;;;;;;20.08;9.30;;;;;;;14.78;100.00;99574.53;10480801;28;20029;-71
2023/09/21 19:12:16;;;;;;;19.42;10.77;;;;;;;14.74;100.00;99574.38;10475231;28;20095;-71
2023/09/21 19:17:16;;;;;;;22.10;10.70;;;;;;;14.75;100.00;99575.19;10477718;28;20037;-71
2023/09/21 19:22:17;;;;;;;20.85;11.20;;;;;;;14.73;100.00;99576.31;10476742;28;20045;-70
2023/09/21 19:27:18;;;;;;;23.58;12.02;;;;;;;14.72;100.00;99579.41;10468740;28;20048;-67
2023/09/21 19:32:19;;;;;;;2.85;1.83;;;;;;;14.49;100.00;99570.19;10469906;28;20041;-70
2023/09/21 19:37:19;;;;;;;6.18;3.08;;;;;;;14.35;100.00;99561.13;10457438;28;20044;-71
2023/09/21 19:42:20;;;;;;;3.92;2.22;;;;;;;14.23;100.00;99576.31;10460673;28;20071;-71
2023/09/21 19:47:21;;;;;;;5.38;2.72;;;;;;;14.13;100.00;99584.84;10459739;28;20036;-70
2023/09/21 19:52:21;;;;;;;3.08;2.10;;;;;;;14.08;100.00;99590.50;10460794;28;20036;-71
2023/09/21 19:57:26;;;;;;;3.40;1.95;;;;;;;14.05;100.00;99591.91;10463747;28;20037;-70
2023/09/21 20:02:27;;;;;;;5.32;2.20;;;;;;;14.01;100.00;99584.56;10465550;28;20050;-70
2023/09/21 20:07:28;;;;;;;2.80;1.90;;;;;;;14.07;100.00;99592.44;10477211;28;20048;-71
2023/09/21 20:12:29;;;;;;;3.35;2.17;;;;;;;14.08;100.00;99579.44;10478864;28;20041;-70
2023/09/21 20:17:30;;;;;;;3.30;1.95;;;;;;;14.01;100.00;99571.53;10465914;28;20057;-70
2023/09/21 20:22:31;;;;;;;4.40;2.28;;;;;;;14.02;100.00;99589.78;10474221;28;20115;-71
2023/09/21 20:27:31;;;;;;;7.25;2.55;;;;;;;14.05;100.00;99583.63;10474536;28;20036;-72
2023/09/21 20:32:32;;;;;;;3.67;1.95;;;;;;;14.02;100.00;99572.38;10474936;28;20043;-71
2023/09/21 20:37:32;;;;;;;5.22;2.33;;;;;;;13.97;100.00;99583.53;10477735;28;20090;-71
2023/09/21 20:42:32;;;;;;;3.22;2.03;;;;;;;13.95;100.00;99591.31;10474892;28;20047;-70
2023/09/21 20:47:33;;;;;;;6.68;1.80;;;;;;;13.93;100.00;99611.00;10469891;28;20072;-71
2023/09/21 20:52:34;;;;;;;4.45;2.35;;;;;;;13.86;100.00;99594.81;10469699;28;20053;-71
2023/09/21 20:57:34;;;;;;;2.25;1.00;;;;;;;13.79;100.00;99597.19;10473648;28;20089;-71
2023/09/21 21:02:35;;;;;;;2.67;1.77;;;;;;;13.71;100.00;99604.22;10465801;28;20048;-70
2023/09/21 21:07:35;;;;;;;4.57;1.98;;;;;;;13.63;100.00;99596.66;10474475;28;20046;-72
2023/09/21 21:12:36;;;;;;;7.53;3.25;;;;;;;13.55;100.00;99604.84;10485072;28;20068;-71
2023/09/21 21:17:36;;;;;;;6.13;3.33;;;;;;;13.69;100.00;99630.56;10479604;28;20043;-72
2023/09/21 21:22:37;;;;;;;6.47;3.92;;;;;;;13.66;100.00;99650.53;10471097;28;20622;-72
2023/09/21 21:27:37;;;;;;;9.18;4.90;;;;;;;13.56;100.00;99634.13;10469918;28;20037;-72
2023/09/21 21:32:38;;;;;;;7.80;4.97;;;;;;;13.59;100.00;99634.34;10463174;28;20074;-72
2023/09/21 21:37:38;;;;;;;10.10;5.03;;;;;;;13.60;100.00;99640.69;10465760;28;20045;-67
2023/09/21 21:42:42;;;;;;;5.88;3.78;;;;;;;13.57;100.00;99624.72;10461477;28;20084;-72
2023/09/21 21:47:43;;;;;;;5.05;3.60;;;;;;;13.56;100.00;99623.06;10468931;28;20064;-72
2023/09/21 21:52:43;;;;;;;4.75;3.58;;;;;;;13.55;100.00;99643.56;10455655;28;20053;-72
2023/09/21 21:57:44;;;;;;;5.15;3.53;;;;;;;13.57;100.00;99635.78;10466743;28;20044;-72
2023/09/21 22:02:45;;;;;;;8.80;3.63;;;;;;;13.61;100.00;99628.50;10475433;28;20037;-72
2023/09/21 22:07:45;;;;;;;6.28;3.80;;;;;;;13.59;100.00;99633.53;10482891;28;20041;-72
2023/09/21 22:12:48;;;;;;;7.63;3.85;;;;;;;13.54;100.00;99626.16;10483520;28;20033;-72
2023/09/21 22:17:49;;;;;;;5.80;3.33;;;;;;;13.50;100.00;99647.22;10481964;28;20048;-70
2023/09/21 22:22:50;;;;;;;8.88;4.00;;;;;;;13.45;100.00;99639.81;10475796;28;20045;-73
2023/09/21 22:27:50;;;;;;;5.53;3.25;;;;;;;13.47;100.00;99634.81;10473352;28;20033;-73
2023/09/21 22:32:51;;;;;;;7.35;3.85;;;;;;;13.44;100.00;99646.50;10471895;28;20044;-73
2023/09/21 22:37:51;;;;;;;6.07;3.25;;;;;;;13.38;100.00;99644.13;10470889;28;20049;-72
2023/09/21 22:42:52;;;;;;;9.93;3.65;;;;;;;13.31;100.00;99642.56;10473234;28;20037;-72
2023/09/21 22:47:53;;;;;;;8.73;4.13;;;;;;;13.23;100.00;99634.94;10458536;28;20044;-68
2023/09/21 22:52:53;;;;;;;7.15;3.53;;;;;;;13.20;100.00;99615.38;10468742;28;21876;-73
2023/09/21 22:57:54;;;;;;;11.95;4.18;;;;;;;13.11;100.00;99629.06;10467986;28;20446;-72
2023/09/21 23:02:54;;;;;;;12.90;4.20;;;;;;;13.00;100.00;99633.94;10470075;28;20041;-73
2023/09/21 23:07:55;;;;;;;8.65;4.70;;;;;;;12.93;100.00;99637.06;10466995;28;20040;-73